Terminal Aerodrome Forecast
Issued by NWS Sioux Falls, SD

Home | Current Version | Previous Version | Text Only | Print | Product List | Glossary Off
Versions: 1 2 3 4 5 6 7 8 9 10 11 12

000
FTUS43 KFSD 210520
TAFFSD
TAF
KFSD 210520Z 2106/2206 30011KT P6SM SCT200
     FM211000 32014G20KT P6SM SCT080
     FM211400 32018G30KT P6SM SKC
     FM212300 30008KT P6SM SKC=

USA.gov is the U.S. government's official web portal to all federal, state and local government web resources and services.